Terminal Aerodrome Forecast
Issued by NWS

Current Version | Previous Version | Text Only | Print | Product List | Glossary Off
Versions: 1 2 3 4 5 6 7 8 9 10 11 12 13 14 15 16 17 18 19 20 21 22 23 24 25 26

000
FTUS41 KILN 242331
TAFLCK
TAF
KLCK 242331Z 2500/2524 19010KT P6SM BKN060
     FM250300 20012G20KT 6SM -SHRA VCTS SCT025 OVC040CB
      TEMPO 2503/2506 4SM TSRA OVC025CB
     FM250800 26012G22KT P6SM VCSH OVC045
     FM251000 27014G24KT P6SM OVC050
     FM251500 26017G27KT P6SM OVC025
     FM252000 26017G27KT P6SM OVC035=

USA.gov is the U.S. government's official web portal to all federal, state and local government web resources and services.